Cenk Y — TCZV7 — position and weather

sailwx.info

Track history (hours):
 
Tides and Currents Weather Stations Pressure Air Temp Water Temp Dewpoint Dewpoint Depression Visibility Wind Speed Wind Dir Waves Ship Positions

Cenk Y

Last reported at 2014-Aug-31 08:16 UTC. Time now 2014-Sep-01 21:04 UTC.
Position N 34°06' E 034°05'.

Length 150 m; draft 3 m.

Type: Ship. MMSI: 271042575.

Date/timePositionNaut miles runAvg speedWind from/ knotsBaromVisibWave heightAir tempDewpointWater temp
2014-Aug-31 08:16N 34°06' E 034°05'14 8.4
2014-Aug-31 06:33N 34°18' E 034°13'17 8.5
2014-Aug-31 04:33N 34°33' E 034°23'  
2014-Aug-28 21:07N 34°17' E 033°35'3313.1
2014-Aug-28 18:33N 33°45' E 033°27'1313.1
2014-Aug-28 17:33N 33°32' E 033°25'1413.0
2014-Aug-28 16:31N 33°18' E 033°22'9 0.2
2014-Aug-27 01:32N 33°15' E 033°32'3113.0
2014-Aug-26 23:09N 33°42' E 033°49'813.1
2014-Aug-26 22:33N 33°49' E 033°53'1313.0
2014-Aug-26 21:33N 34°00' E 034°01'1312.9
2014-Aug-26 20:34N 34°11' E 034°10'1412.8
2014-Aug-26 19:29N 34°22' E 034°19'2512.8
2014-Aug-26 17:31N 34°44' E 034°35'1313.0
2014-Aug-26 16:32N 34°55' E 034°42'6 0.1
2014-Aug-24 21:30N 34°50' E 034°39'1313.5
2014-Aug-24 20:33N 34°39' E 034°32'1413.8
2014-Aug-24 19:33N 34°27' E 034°23'1413.7
2014-Aug-24 18:33N 34°15' E 034°16'1313.4
2014-Aug-24 17:33N 34°03' E 034°08'1312.9
2014-Aug-24 16:33N 33°52' E 034°01'1312.8
2014-Aug-24 15:33N 33°41' E 033°53'1312.8
2014-Aug-24 14:33N 33°29' E 033°45'1313.0
2014-Aug-24 13:33N 33°18' E 033°38'1313.3
2014-Aug-24 12:33N 33°06' E 033°31'1414.0
2014-Aug-24 11:33N 32°54' E 033°22'1413.8
2014-Aug-24 10:33N 32°42' E 033°14'1413.7
2014-Aug-24 09:33N 32°30' E 033°07'1613.4
2014-Aug-24 08:20N 32°16' E 032°57'2413.5
2014-Aug-24 06:33N 31°54' E 032°44'1413.6
2014-Aug-24 05:30N 31°42' E 032°36'1313.4
2014-Aug-24 04:33N 31°35' E 032°23'20 2.5
2014-Aug-23 20:23N 31°15' E 032°18'123 7.3
2014-Aug-23 03:33N 33°03' E 033°26'1512.7
2014-Aug-23 02:23N 33°16' E 033°34'1312.9
2014-Aug-23 01:24N 33°27' E 033°42'1113.0
2014-Aug-23 00:33N 33°37' E 033°49'2713.3
2014-Aug-22 22:33N 33°60' E 034°05'  
Track history (hours):
 
Tides and Currents Weather Stations Pressure Air Temp Water Temp Dewpoint Dewpoint Depression Visibility Wind Speed Wind Dir Waves Ship Positions

Cenk Y

Last reported at 2014-Aug-31 08:16 UTC. Time now 2014-Sep-01 21:04 UTC.
Position N 34°06' E 034°05'.

Length 150 m; draft 3 m.

Type: Ship. MMSI: 271042575.

Date/timePositionNaut miles runAvg speedWind from/ knotsBaromVisibWave heightAir tempDewpointWater temp
2014-Aug-31 08:16N 34°06' E 034°05'14 8.4
2014-Aug-31 06:33N 34°18' E 034°13'17 8.5
2014-Aug-31 04:33N 34°33' E 034°23'  
2014-Aug-28 21:07N 34°17' E 033°35'3313.1
2014-Aug-28 18:33N 33°45' E 033°27'1313.1
2014-Aug-28 17:33N 33°32' E 033°25'1413.0
2014-Aug-28 16:31N 33°18' E 033°22'9 0.2
2014-Aug-27 01:32N 33°15' E 033°32'3113.0
2014-Aug-26 23:09N 33°42' E 033°49'813.1
2014-Aug-26 22:33N 33°49' E 033°53'1313.0
2014-Aug-26 21:33N 34°00' E 034°01'1312.9
2014-Aug-26 20:34N 34°11' E 034°10'1412.8
2014-Aug-26 19:29N 34°22' E 034°19'2512.8
2014-Aug-26 17:31N 34°44' E 034°35'1313.0
2014-Aug-26 16:32N 34°55' E 034°42'6 0.1
2014-Aug-24 21:30N 34°50' E 034°39'1313.5
2014-Aug-24 20:33N 34°39' E 034°32'1413.8
2014-Aug-24 19:33N 34°27' E 034°23'1413.7
2014-Aug-24 18:33N 34°15' E 034°16'1313.4
2014-Aug-24 17:33N 34°03' E 034°08'1312.9
2014-Aug-24 16:33N 33°52' E 034°01'1312.8
2014-Aug-24 15:33N 33°41' E 033°53'1312.8
2014-Aug-24 14:33N 33°29' E 033°45'1313.0
2014-Aug-24 13:33N 33°18' E 033°38'1313.3
2014-Aug-24 12:33N 33°06' E 033°31'1414.0
2014-Aug-24 11:33N 32°54' E 033°22'1413.8
2014-Aug-24 10:33N 32°42' E 033°14'1413.7
2014-Aug-24 09:33N 32°30' E 033°07'1613.4
2014-Aug-24 08:20N 32°16' E 032°57'2413.5
2014-Aug-24 06:33N 31°54' E 032°44'1413.6
2014-Aug-24 05:30N 31°42' E 032°36'1313.4
2014-Aug-24 04:33N 31°35' E 032°23'20 2.5
2014-Aug-23 20:23N 31°15' E 032°18'123 7.3
2014-Aug-23 03:33N 33°03' E 033°26'1512.7
2014-Aug-23 02:23N 33°16' E 033°34'1312.9
2014-Aug-23 01:24N 33°27' E 033°42'1113.0
2014-Aug-23 00:33N 33°37' E 033°49'2713.3
2014-Aug-22 22:33N 33°60' E 034°05'  

Dump ship's entire track history